KGVE/GVE METAR and TAF weather

Enter ICAO airport designator
Station Type Date Time Source
KGVE METAR 2020/09/30 15:35 UTC NOAA

KGVE 301535Z AUTO 23009G14KT 210V270 10SM SCT047 18/08 A2990 RMK AO1 T01780082


Station Type Date Time Source
KGVE Decoded METAR 2020/09/30 15:35 UTC NOAA

Station name not available
Sep 30, 2020 - 11:35 AM EDT / 2020.09.30 1535 UTC
Wind: from the SW (230 degrees) at 10 MPH (9 KT) gusting to 16 MPH (14 KT) (direction variable):0
Visibility: 10 mile(s):0
Sky conditions: partly cloudy
Temperature: 64.0 F (17.8 C)
Dew Point: 46.8 F (8.2 C)
Relative Humidity: 53%
Pressure (altimeter): 29.9 in. Hg (1012 hPa)
ob: KGVE 301535Z AUTO 23009G14KT 210V270 10SM SCT047 18/08 A2990 RMK AO1 T01780082
cycle: 15

Station Type Date Time Source
KGVE TAF UTC NOAA

Error!

Example: see airport list